• Join FlightAware (Why Join?)
  • Login
  • US Flag 
07:14AM EDT


 

Airport Tracker/Info


-or-


 

Live Flight TrackerFlight Track Log ✈ DAL6035 ✈ 23-Apr-2013 ✈ KLGA - KMHT

Flight Track Log - Related Links

Times and Time Zones

All times are in EDT time to prevent confusion due to time zone crossing. See the DAL6035 flight status page for this flight to view local times or setup timezone preferences in your user account.

Time Position Orientation Groundspeed Altitude Reporting Facility
EDT Latitude Longitude Course Direction KTS MPH feet Rate Location/Type
12:54PM 40.7500 -73.8333 27° Northeast 175 201 1,600  Level New York TRACON
12:55PM 40.7500 -73.7833 90° East 212 244 4,100 2,340 Climbing New York TRACON
12:56PM 40.8000 -73.7667 14° North 229 264 6,300 2,160 Climbing New York TRACON
12:57PM 41.0265 -73.6597 28° Northeast  Level FlightAware Approximate
12:57PM 40.8667 -73.7167 30° Northeast 263 303 8,500  Level New York TRACON
12:58PM 41.1159 -73.5958 28° Northeast  Level FlightAware Approximate
12:59PM 41.2016 -73.5236 33° Northeast  Level FlightAware Approximate
12:59PM 40.9747 -73.6525 24° Northeast 285 328 12,100  Level Boston Center
01:00PM 41.2777 -73.4593 27° Northeast  Level FlightAware Approximate
01:00PM 41.0481 -73.6042 26° Northeast 273 314 15,100  Level Boston Center
01:01PM 41.1089 -73.5614 28° Northeast 268 308 17,300 1,860 Climbing Boston Center
01:02PM 41.1867 -73.5103 26° Northeast 268 308 18,800 1,260 Climbing Boston Center
01:03PM 41.2600 -73.4644 25° Northeast 288 331 19,900 1,260 Climbing Boston Center
01:04PM 41.3439 -73.4078 27° Northeast 312 359 21,400 1,440 Climbing Boston Center
01:05PM 41.4319 -73.3483 27° Northeast 334 384 22,800 780 Climbing Boston Center
01:06PM 41.5178 -73.2689 35° Northeast 358 412 23,000 60 Climbing Boston Center
01:07PM 41.5958 -73.1619 46° Northeast 358 412 23,000  Level Boston Center
01:08PM 41.6919 -73.1156 20° North 348 400 23,000 -300 Level Boston Center
01:09PM 41.7939 -73.1361 351° North 339 390 22,500 -720 Descending Boston Center
01:10PM 41.8939 -73.1542 352° North 346 398 21,600 -780 Descending Boston Center
01:11PM 41.9917 -73.1719 352° North 351 404 21,000 -300 Descending Boston Center
01:12PM 42.0894 -73.1897 352° North 351 404 21,000  Level Boston Center
01:13PM 42.1872 -73.2078 352° North 351 404 21,000 -60 Level Boston Center
01:14PM 42.2811 -73.2231 353° North 351 404 20,900 -600 Descending Boston Center
01:15PM 42.3686 -73.2269 358° North 351 404 19,900 -960 Descending Boston Center
01:16PM 42.4642 -73.2506 350° North 345 397 19,000 -480 Descending Boston Center
01:17PM 42.5558 -73.2689 352° North 323 372 19,000  Level Boston Center
01:18PM 42.6453 -73.2811 354° North 323 372 19,000  Level Boston Center
01:19PM 42.7369 -73.2994 352° North 328 377 19,000  Level Boston Center
01:20PM 42.8264 -73.3147 353° North 328 377 19,000  Level Boston Center
01:21PM 42.9119 -73.3019 North 319 367 19,000  Level Boston Center
01:22PM 42.9564 -73.2031 58° Northeast 288 331 19,000  Level Boston Center
01:23PM 42.9425 -73.0725 98° East 276 318 19,000  Level Boston Center
01:24PM 42.9347 -72.9647 96° East 301 346 19,000 -300 Level Boston Center
01:25PM 42.9208 -72.8400 99° East 321 369 18,500 -780 Descending Boston Center
01:26PM 42.9086 -72.7178 98° East 321 369 17,500 -1,200 Descending Boston Center
01:27PM 42.8964 -72.5958 98° East 321 369 16,100 -1,500 Descending Boston Center
01:28PM 42.8839 -72.4797 98° East 321 369 14,600 -1,380 Descending Boston Center
01:29PM 42.8733 -72.3692 97° East 305 351 13,100 -1,860 Descending Boston Center
01:30PM 42.8567 -72.2333 99° East 288 331 10,600 -1,980 Descending Boston Center
01:31PM 42.8461 -72.1342 98° East 274 315 9,200 -1,320 Descending Boston Center
01:32PM 42.8331 -72.0408 101° East 262 302 8,000 -1,440 Descending Boston Center
01:33PM 42.8225 -71.9503 99° East 245 282 6,400 -1,440 Descending Boston Center
01:34PM 42.8094 -71.8656 102° East 234 269 5,200 -1,200 Descending Boston Center
01:35PM 42.7986 -71.7892 101° East 218 251 4,100 -1,020 Descending Boston Center
01:36PM 42.7858 -71.7186 104° East 198 228 3,200 -540 Descending Boston Center
01:37PM 42.7792 -71.6536 98° East 186 214 3,100 -60 Descending Boston Center
01:38PM 42.8058 -71.5997 56° Northeast 162 186 3,100 -240 Level Boston Center
01:39PM 42.8450 -71.5539 41° Northeast 168 193 2,600 -480 Descending Boston Center